Time;durP1;ratioP1;P1;durP2;ratioP2;P2;SDS_P1;SDS_P2;PMS_P1;PMS_P2;Temp;Humidity;BMP_temperature;BMP_pressure;BME280_temperature;BME280_humidity;BME280_pressure;Samples;Min_cycle;Max_cycle;Signal;HPM_P1;HPM_P2
2022/07/05 00:00:12;;;;;;;16.07;7.10;;;15.50;90.80;;;;;;5053443;28;20167;-80
2022/07/05 00:02:40;;;;;;;15.27;6.00;;;15.50;90.30;;;;;;5052490;28;20681;-74
2022/07/05 00:05:08;;;;;;;16.00;5.90;;;15.50;90.10;;;;;;5052369;28;20195;-74
2022/07/05 00:07:35;;;;;;;15.83;6.27;;;15.60;90.10;;;;;;5052874;28;20634;-75
2022/07/05 00:10:03;;;;;;;20.77;5.70;;;15.60;89.90;;;;;;5052744;28;20183;-72
2022/07/05 00:12:32;;;;;;;15.90;5.17;;;15.70;89.70;;;;;;5052427;28;20180;-75
2022/07/05 00:15:01;;;;;;;21.33;5.97;;;15.70;89.50;;;;;;5052817;28;20176;-75
2022/07/05 00:17:28;;;;;;;16.53;4.53;;;15.70;89.40;;;;;;5052244;28;20638;-75
2022/07/05 00:19:55;;;;;;;14.97;4.53;;;15.70;88.90;;;;;;5051316;28;20183;-75
2022/07/05 00:22:23;;;;;;;10.93;4.97;;;15.50;89.40;;;;;;5061776;28;20179;-75
2022/07/05 00:24:50;;;;;;;14.60;5.37;;;15.50;90.00;;;;;;5055004;28;20215;-75
2022/07/05 00:27:18;;;;;;;23.10;7.07;;;15.50;90.40;;;;;;5052577;28;20211;-72
2022/07/05 00:29:45;;;;;;;14.90;6.93;;;15.60;90.60;;;;;;5052378;28;20211;-73
2022/07/05 00:32:13;;;;;;;14.60;5.63;;;15.60;90.60;;;;;;5052200;28;20172;-74
2022/07/05 00:34:40;;;;;;;14.90;5.07;;;15.60;89.90;;;;;;5052649;28;20247;-76
2022/07/05 00:37:08;;;;;;;12.50;5.00;;;15.60;89.90;;;;;;5052020;28;20190;-76
2022/07/05 00:39:35;;;;;;;21.47;6.47;;;15.70;89.50;;;;;;5052571;28;20179;-76
2022/07/05 00:42:03;;;;;;;16.47;4.63;;;15.80;89.40;;;;;;5051011;28;20194;-74
2022/07/05 00:44:41;;;;;;;16.97;4.97;;;16.00;88.50;;;;;;5051310;28;20220;-76
2022/07/05 00:47:11;;;;;;;17.00;4.73;;;16.20;88.10;;;;;;5068848;28;20175;-78
2022/07/05 00:49:40;;;;;;;17.23;4.33;;;16.30;87.30;;;;;;5054076;28;20195;-75
2022/07/05 00:52:08;;;;;;;12.90;3.83;;;16.30;87.40;;;;;;5052322;28;20172;-78
2022/07/05 00:54:38;;;;;;;13.70;3.30;;;16.20;87.60;;;;;;5052524;28;20176;-77
2022/07/05 00:57:06;;;;;;;12.43;3.63;;;15.80;88.30;;;;;;5052599;28;20207;-75
2022/07/05 00:59:34;;;;;;;15.27;3.77;;;15.80;89.30;;;;;;5052637;28;20186;-74
2022/07/05 01:02:01;;;;;;;14.00;4.33;;;15.70;89.00;;;;;;5052451;28;20271;-77
2022/07/05 01:04:29;;;;;;;13.97;3.83;;;15.80;89.20;;;;;;5052087;28;20220;-75
2022/07/05 01:06:57;;;;;;;10.30;3.67;;;15.90;88.90;;;;;;5052406;28;20478;-77
2022/07/05 01:09:24;;;;;;;22.60;3.90;;;16.00;88.00;;;;;;5052349;28;20180;-77
2022/07/05 01:11:54;;;;;;;15.17;3.83;;;16.10;87.60;;;;;;5052510;28;20262;-76
2022/07/05 01:14:23;;;;;;;14.63;3.40;;;16.20;86.90;;;;;;5051758;28;20547;-78
2022/07/05 01:16:52;;;;;;;13.43;3.07;;;16.20;85.90;;;;;;5056177;28;20184;-73
2022/07/05 01:19:21;;;;;;;11.63;2.63;;;16.30;86.20;;;;;;5056275;28;20260;-76
2022/07/05 01:21:50;;;;;;;16.43;2.97;;;16.20;85.80;;;;;;5061603;28;20176;-72
2022/07/05 01:24:19;;;;;;;14.53;3.00;;;16.30;86.40;;;;;;5056580;28;20251;-76
2022/07/05 01:26:49;;;;;;;22.17;4.47;;;16.30;86.60;;;;;;5055737;28;20643;-74
2022/07/05 01:29:16;;;;;;;19.73;5.03;;;16.30;87.00;;;;;;5071710;28;20276;-75
2022/07/05 01:31:44;;;;;;;19.40;6.60;;;16.20;87.60;;;;;;5067387;28;20217;-74
2022/07/05 01:34:12;;;;;;;13.97;3.97;;;16.00;88.10;;;;;;5075726;28;20206;-73
2022/07/05 01:36:40;;;;;;;19.87;6.73;;;15.80;88.40;;;;;;5062104;28;20229;-74
2022/07/05 01:39:08;;;;;;;19.90;4.07;;;15.90;88.70;;;;;;5080762;28;20588;-75
2022/07/05 01:41:36;;;;;;;16.70;3.73;;;15.90;88.50;;;;;;5072081;28;20191;-74
2022/07/05 01:44:04;;;;;;;19.90;4.20;;;15.80;88.50;;;;;;5065709;28;20211;-74
2022/07/05 01:46:36;;;;;;;14.17;3.30;;;15.90;88.30;;;;;;5061546;28;20186;-74
2022/07/05 01:49:10;;;;;;;11.10;3.40;;;15.80;88.00;;;;;;5065506;28;20254;-75
2022/07/05 01:51:55;;;;;;;13.70;3.47;;;15.90;88.10;;;;;;5067417;28;20187;-75
2022/07/05 01:54:22;;;;;;;13.63;3.77;;;16.00;87.90;;;;;;5055273;28;20176;-75
2022/07/05 01:56:50;;;;;;;20.17;3.57;;;16.00;87.20;;;;;;5055483;28;20180;-76
2022/07/05 01:59:17;;;;;;;12.30;2.90;;;16.10;86.70;;;;;;5055427;28;20180;-72
2022/07/05 02:01:45;;;;;;;12.53;2.47;;;16.10;86.30;;;;;;5055507;28;20266;-76
2022/07/05 02:04:12;;;;;;;14.70;2.60;;;16.20;85.40;;;;;;5069761;28;20263;-76
2022/07/05 02:06:40;;;;;;;19.27;3.27;;;16.20;85.20;;;;;;5065220;28;20555;-75
2022/07/05 02:09:08;;;;;;;14.50;4.10;;;16.30;85.20;;;;;;5071447;28;20183;-76
2022/07/05 02:11:36;;;;;;;11.07;2.70;;;16.30;85.20;;;;;;5074569;28;20181;-77
2022/07/05 02:14:04;;;;;;;17.10;3.00;;;16.50;84.60;;;;;;5055068;28;20635;-74
2022/07/05 02:16:31;;;;;;;15.00;3.23;;;16.60;84.40;;;;;;5065450;28;20210;-77
2022/07/05 02:18:59;;;;;;;14.13;2.50;;;16.70;83.80;;;;;;5068041;28;20261;-74
2022/07/05 02:21:26;;;;;;;12.90;3.03;;;16.70;83.40;;;;;;5056069;28;20279;-75
2022/07/05 02:23:54;;;;;;;17.33;2.77;;;16.70;83.00;;;;;;5074591;28;20836;-76
2022/07/05 02:26:21;;;;;;;17.43;4.03;;;16.70;82.50;;;;;;5069200;28;20215;-75
2022/07/05 02:28:50;;;;;;;13.00;2.77;;;16.80;82.00;;;;;;5059952;28;20279;-75
2022/07/05 02:31:19;;;;;;;15.53;2.90;;;16.80;81.90;;;;;;5055466;28;20182;-74
2022/07/05 02:33:47;;;;;;;11.50;2.47;;;16.80;81.80;;;;;;5077514;28;20195;-74
2022/07/05 02:36:15;;;;;;;9.97;1.83;;;16.70;81.30;;;;;;5068525;28;20175;-74
2022/07/05 02:38:42;;;;;;;9.50;2.23;;;16.70;81.80;;;;;;5063634;28;20188;-79
2022/07/05 02:41:12;;;;;;;15.60;2.70;;;16.60;82.00;;;;;;5086992;28;20219;-75
2022/07/05 02:43:40;;;;;;;9.77;2.50;;;16.60;82.40;;;;;;5082620;28;20214;-75
2022/07/05 02:46:08;;;;;;;12.40;2.43;;;16.50;82.60;;;;;;5092254;28;20210;-74
2022/07/05 02:48:37;;;;;;;14.53;2.53;;;16.60;82.00;;;;;;5065475;28;20181;-75
2022/07/05 02:51:05;;;;;;;15.03;3.20;;;16.60;81.70;;;;;;5053142;28;20202;-78
2022/07/05 02:53:34;;;;;;;8.37;2.07;;;16.50;82.80;;;;;;5063875;28;20182;-75
2022/07/05 02:56:02;;;;;;;11.80;2.50;;;16.20;83.20;;;;;;5054356;28;20215;-77
2022/07/05 02:58:29;;;;;;;12.60;2.77;;;16.10;84.40;;;;;;5053880;28;20180;-73
2022/07/05 03:00:57;;;;;;;18.87;2.70;;;16.10;83.00;;;;;;5053990;28;20184;-75
2022/07/05 03:03:24;;;;;;;14.20;2.73;;;16.10;83.20;;;;;;5053953;28;20292;-73
2022/07/05 03:05:52;;;;;;;8.90;2.00;;;16.20;82.30;;;;;;5053664;28;20259;-76
2022/07/05 03:08:19;;;;;;;11.07;2.43;;;16.20;81.80;;;;;;5053627;28;20184;-75
2022/07/05 03:10:47;;;;;;;14.17;2.67;;;16.20;80.80;;;;;;5053708;28;20183;-74
2022/07/05 03:13:14;;;;;;;15.90;2.53;;;16.20;82.20;;;;;;5053675;28;20255;-74
2022/07/05 03:15:42;;;;;;;10.33;2.77;;;16.10;82.70;;;;;;5053885;28;20192;-75
2022/07/05 03:18:10;;;;;;;10.03;2.67;;;16.10;82.60;;;;;;5053565;28;20189;-76
2022/07/05 03:20:37;;;;;;;11.63;2.57;;;16.10;81.50;;;;;;5053665;28;20176;-75
2022/07/05 03:23:05;;;;;;;13.63;4.33;;;16.20;81.30;;;;;;5056475;28;20208;-76
2022/07/05 03:25:33;;;;;;;11.00;3.30;;;16.30;81.10;;;;;;5053790;28;20181;-75
2022/07/05 03:28:00;;;;;;;13.87;2.93;;;16.30;80.60;;;;;;5053642;28;20253;-76
2022/07/05 03:30:28;;;;;;;6.80;1.90;;;16.40;81.00;;;;;;5053315;28;20559;-75
2022/07/05 03:32:55;;;;;;;11.47;2.10;;;16.40;80.10;;;;;;5053388;28;20186;-73
2022/07/05 03:35:22;;;;;;;10.63;2.30;;;16.40;79.70;;;;;;5053026;28;20173;-74
2022/07/05 03:37:50;;;;;;;9.90;2.00;;;16.40;80.20;;;;;;5053620;28;20651;-74
2022/07/05 03:40:17;;;;;;;8.67;1.80;;;16.50;79.20;;;;;;5071536;28;20590;-74
2022/07/05 03:42:44;;;;;;;7.90;2.37;;;16.60;79.30;;;;;;5071699;28;20226;-74
2022/07/05 03:45:12;;;;;;;12.20;2.20;;;16.60;78.80;;;;;;5071823;28;20593;-74
2022/07/05 03:47:39;;;;;;;7.93;2.50;;;16.60;78.50;;;;;;5056961;28;20184;-75
2022/07/05 03:50:07;;;;;;;10.80;1.83;;;16.50;78.20;;;;;;5065910;28;20240;-75
2022/07/05 03:52:35;;;;;;;10.60;2.00;;;16.50;78.70;;;;;;5068822;28;20183;-75
2022/07/05 03:55:02;;;;;;;11.53;2.43;;;16.30;80.60;;;;;;5065747;28;20710;-75
2022/07/05 03:57:30;;;;;;;14.13;2.50;;;16.20;81.70;;;;;;5066213;28;20184;-72
2022/07/05 03:59:57;;;;;;;6.80;1.87;;;16.20;80.70;;;;;;5068340;28;20180;-74
2022/07/05 04:02:24;;;;;;;12.00;2.60;;;16.10;80.20;;;;;;5065256;28;20233;-77
2022/07/05 04:04:52;;;;;;;14.60;2.57;;;16.10;80.20;;;;;;5060901;28;20275;-74
2022/07/05 04:07:19;;;;;;;10.23;2.97;;;16.20;80.40;;;;;;5066082;28;20190;-75
2022/07/05 04:09:47;;;;;;;12.17;2.60;;;16.20;81.10;;;;;;5069916;28;20191;-74
2022/07/05 04:12:14;;;;;;;15.70;2.67;;;16.00;82.30;;;;;;5066685;28;20193;-75
2022/07/05 04:14:41;;;;;;;10.50;2.23;;;15.80;84.00;;;;;;5063440;28;20180;-76
2022/07/05 04:17:09;;;;;;;16.50;2.60;;;15.70;84.10;;;;;;5064493;28;20191;-73
2022/07/05 04:19:36;;;;;;;12.90;2.70;;;15.70;84.40;;;;;;5063520;28;20686;-75
2022/07/05 04:22:04;;;;;;;11.20;2.67;;;15.70;83.90;;;;;;5066044;28;20176;-74
2022/07/05 04:25:16;;;;;;;13.40;2.60;;;15.80;84.10;;;;;;5067522;28;20227;-76
2022/07/05 04:27:18;;;;;;;8.80;2.63;;;15.80;83.90;;;;;;5063189;28;20231;-77
2022/07/05 04:29:46;;;;;;;10.43;2.33;;;15.90;82.80;;;;;;5069969;28;20186;-74
2022/07/05 04:32:13;;;;;;;13.73;2.47;;;16.00;82.20;;;;;;5069244;28;20194;-74
2022/07/05 04:34:41;;;;;;;15.90;3.37;;;16.00;81.70;;;;;;5068402;28;20212;-75
2022/07/05 04:37:08;;;;;;;10.00;2.30;;;16.10;81.40;;;;;;5069363;28;20175;-76
2022/07/05 04:39:35;;;;;;;10.00;2.40;;;16.20;80.10;;;;;;5069141;28;20180;-74
2022/07/05 04:42:03;;;;;;;11.80;2.27;;;16.30;79.50;;;;;;5062905;28;20191;-74
2022/07/05 04:44:30;;;;;;;12.63;2.80;;;16.40;78.70;;;;;;5068060;28;20243;-74
2022/07/05 04:46:58;;;;;;;8.80;3.80;;;16.40;78.00;;;;;;5065680;28;20182;-74
2022/07/05 04:49:25;;;;;;;10.70;3.43;;;16.40;78.10;;;;;;5067661;28;20182;-74
2022/07/05 04:51:53;;;;;;;12.63;2.57;;;16.50;77.40;;;;;;5073406;28;20253;-74
2022/07/05 04:54:20;;;;;;;11.77;2.23;;;16.40;78.00;;;;;;5069714;28;20229;-76
2022/07/05 04:56:47;;;;;;;12.40;2.00;;;16.40;77.40;;;;;;5072683;28;20989;-74
2022/07/05 04:59:15;;;;;;;11.37;2.50;;;16.40;77.40;;;;;;5074409;28;20265;-74
2022/07/05 05:01:42;;;;;;;9.13;2.40;;;16.30;77.60;;;;;;5076832;28;20179;-74
2022/07/05 05:04:10;;;;;;;9.70;2.50;;;16.30;77.60;;;;;;5074910;28;20250;-74
2022/07/05 05:06:37;;;;;;;10.43;2.90;;;16.30;78.40;;;;;;5076259;28;20179;-75
2022/07/05 05:09:05;;;;;;;13.20;2.93;;;16.30;77.80;;;;;;5077552;28;20198;-76
2022/07/05 05:11:32;;;;;;;11.10;2.80;;;16.30;77.40;;;;;;5075893;28;20175;-75
2022/07/05 05:13:59;;;;;;;15.37;3.13;;;16.30;76.70;;;;;;5073339;28;20184;-75
2022/07/05 05:16:27;;;;;;;8.63;2.53;;;16.40;77.30;;;;;;5068824;28;20175;-72
2022/07/05 05:18:54;;;;;;;17.60;3.50;;;16.40;76.70;;;;;;5071831;28;20543;-77
2022/07/05 05:21:22;;;;;;;16.83;6.50;;;16.40;76.70;;;;;;5076817;28;20175;-75
2022/07/05 05:23:49;;;;;;;14.57;4.80;;;16.40;76.20;;;;;;5075316;28;20264;-74
2022/07/05 05:26:16;;;;;;;15.07;3.13;;;16.40;76.60;;;;;;5073042;28;20227;-76
2022/07/05 05:28:44;;;;;;;9.50;2.47;;;16.30;77.10;;;;;;5077955;28;20195;-75
2022/07/05 05:31:11;;;;;;;9.90;2.40;;;16.40;76.90;;;;;;5075538;28;20630;-77
2022/07/05 05:33:39;;;;;;;22.63;3.23;;;16.40;76.40;;;;;;5076645;28;20251;-75
2022/07/05 05:36:07;;;;;;;13.80;2.60;;;16.40;76.40;;;;;;5074461;28;20287;-78
2022/07/05 05:38:37;;;;;;;11.53;2.77;;;16.50;76.80;;;;;;5071992;28;20199;-77
2022/07/05 05:41:05;;;;;;;16.17;2.87;;;16.40;77.90;;;;;;5070998;28;20182;-73
2022/07/05 05:43:33;;;;;;;14.37;2.83;;;16.30;79.90;;;;;;5074107;28;20739;-76
2022/07/05 05:46:00;;;;;;;13.50;2.57;;;16.20;80.80;;;;;;5076446;28;20180;-75
2022/07/05 05:48:27;;;;;;;13.67;2.80;;;16.00;80.80;;;;;;5068990;28;20187;-76
2022/07/05 05:50:56;;;;;;;17.80;2.90;;;16.00;80.00;;;;;;5077358;28;20194;-77
2022/07/05 05:53:23;;;;;;;12.03;2.70;;;16.10;79.80;;;;;;5077235;28;20277;-74
2022/07/05 05:55:51;;;;;;;15.63;2.77;;;16.00;79.20;;;;;;5071106;28;20173;-76
2022/07/05 05:58:21;;;;;;;17.77;2.73;;;16.10;78.50;;;;;;5075156;28;20180;-74
2022/07/05 06:00:51;;;;;;;12.90;2.90;;;16.10;78.00;;;;;;5069422;28;20753;-75
2022/07/05 06:03:20;;;;;;;12.23;1.90;;;16.10;77.60;;;;;;5071034;28;20199;-74
2022/07/05 06:05:48;;;;;;;12.30;2.63;;;16.20;77.70;;;;;;5071977;28;20230;-77
2022/07/05 06:08:16;;;;;;;15.27;2.83;;;16.20;77.10;;;;;;5076323;28;20230;-80
2022/07/05 06:10:44;;;;;;;14.60;3.37;;;16.20;76.90;;;;;;5073068;28;20179;-74
2022/07/05 06:13:13;;;;;;;13.03;2.50;;;16.20;76.30;;;;;;5072215;28;20185;-75
2022/07/05 06:15:42;;;;;;;18.77;2.90;;;16.20;76.30;;;;;;5068396;28;20183;-73
2022/07/05 06:18:11;;;;;;;13.53;2.60;;;16.20;76.50;;;;;;5071834;28;20178;-75
2022/07/05 06:20:39;;;;;;;10.10;2.33;;;16.20;76.70;;;;;;5071504;28;20691;-77
2022/07/05 06:23:08;;;;;;;13.10;2.53;;;16.20;76.30;;;;;;5063558;28;20216;-79
2022/07/05 06:25:36;;;;;;;14.43;2.83;;;16.20;75.40;;;;;;5056588;28;20180;-75
2022/07/05 06:28:07;;;;;;;14.67;2.90;;;16.20;75.70;;;;;;5078186;28;20276;-78
2022/07/05 06:30:37;;;;;;;11.53;2.80;;;16.30;76.00;;;;;;5080430;28;20208;-75
2022/07/05 06:33:05;;;;;;;11.67;2.80;;;16.30;76.00;;;;;;5085058;28;20222;-75
2022/07/05 06:35:33;;;;;;;13.90;2.50;;;16.20;76.10;;;;;;5072401;28;20176;-75
2022/07/05 06:38:06;;;;;;;15.37;3.30;;;16.20;76.40;;;;;;5055773;28;20233;-79
2022/07/05 06:40:34;;;;;;;12.73;3.17;;;16.20;76.70;;;;;;5057116;28;20172;-78
2022/07/05 06:43:07;;;;;;;14.40;2.93;;;16.20;76.80;;;;;;5076803;28;20199;-74
2022/07/05 06:45:34;;;;;;;11.23;2.50;;;16.20;76.60;;;;;;5079313;28;20184;-75
2022/07/05 06:48:04;;;;;;;14.53;2.77;;;16.20;76.30;;;;;;5077274;28;20176;-77
2022/07/05 06:50:35;;;;;;;13.87;2.50;;;16.10;75.90;;;;;;5053926;28;20195;-77
2022/07/05 06:53:04;;;;;;;13.90;3.00;;;16.20;76.40;;;;;;5076774;28;20267;-77
2022/07/05 06:55:32;;;;;;;15.00;3.23;;;16.20;76.40;;;;;;5069160;28;20187;-76
2022/07/05 06:58:05;;;;;;;14.63;4.07;;;16.20;76.70;;;;;;5061821;28;20280;-78
2022/07/05 07:00:33;;;;;;;17.80;3.20;;;16.10;77.40;;;;;;5058096;28;20231;-76
2022/07/05 07:03:01;;;;;;;15.70;2.70;;;16.20;76.90;;;;;;5053753;28;20210;-75
2022/07/05 07:05:29;;;;;;;12.13;2.90;;;16.20;76.40;;;;;;5071459;28;20674;-75
2022/07/05 07:10:42;;;;;;;9.37;2.00;;;16.10;76.20;;;;;;5061599;28;20183;-73
2022/07/05 07:13:09;;;;;;;8.70;2.20;;;16.10;76.10;;;;;;5056228;28;20593;-77
2022/07/05 07:15:40;;;;;;;12.57;2.43;;;16.00;76.70;;;;;;5067419;28;20210;-76
2022/07/05 07:18:08;;;;;;;14.23;2.20;;;16.00;77.10;;;;;;5071005;28;20163;-72
2022/07/05 07:20:35;;;;;;;12.87;2.20;;;16.00;77.40;;;;;;5068630;28;20253;-76
2022/07/05 07:23:02;;;;;;;12.30;2.20;;;16.00;76.30;;;;;;5071063;28;20283;-73
2022/07/05 07:25:30;;;;;;;9.10;2.77;;;16.00;76.70;;;;;;5072726;28;20629;-77
2022/07/05 07:27:57;;;;;;;11.03;2.57;;;16.00;76.20;;;;;;5077454;28;20262;-75
2022/07/05 07:30:27;;;;;;;10.47;2.23;;;16.00;76.50;;;;;;5082346;28;20651;-76
2022/07/05 07:32:55;;;;;;;13.97;2.20;;;16.00;76.20;;;;;;5069327;28;20184;-79
2022/07/05 07:35:23;;;;;;;7.53;2.20;;;16.00;75.90;;;;;;5066815;28;20191;-76
2022/07/05 07:37:50;;;;;;;12.73;2.73;;;16.10;76.00;;;;;;5058104;28;20280;-74
2022/07/05 07:40:18;;;;;;;11.63;2.93;;;16.10;76.30;;;;;;5051985;28;20191;-73
2022/07/05 07:42:45;;;;;;;11.00;2.50;;;16.20;76.60;;;;;;5057745;28;20180;-74
2022/07/05 07:45:13;;;;;;;16.97;3.00;;;16.00;76.70;;;;;;5068739;28;20531;-72
2022/07/05 07:47:40;;;;;;;19.53;3.40;;;16.10;77.20;;;;;;5072283;28;20657;-74
2022/07/05 07:50:08;;;;;;;16.40;3.20;;;16.00;77.30;;;;;;5055244;28;20737;-74
2022/07/05 07:52:36;;;;;;;15.03;3.00;;;16.10;77.40;;;;;;5063579;28;20585;-73
2022/07/05 07:55:05;;;;;;;11.03;2.87;;;16.10;77.20;;;;;;5076953;28;20643;-73
2022/07/05 07:57:32;;;;;;;13.50;2.50;;;16.10;76.30;;;;;;5070290;28;20239;-72
2022/07/05 08:00:00;;;;;;;11.93;2.53;;;16.20;76.10;;;;;;5068484;28;20194;-75
2022/07/05 08:02:27;;;;;;;12.53;2.53;;;16.10;76.40;;;;;;5077146;28;20179;-72
2022/07/05 08:04:55;;;;;;;9.97;2.43;;;16.10;77.30;;;;;;5067282;28;20280;-72
2022/07/05 08:07:22;;;;;;;8.33;2.20;;;16.10;77.80;;;;;;5064946;28;20180;-78
2022/07/05 08:09:50;;;;;;;16.53;2.87;;;16.00;78.10;;;;;;5065743;28;20551;-72
2022/07/05 08:12:17;;;;;;;15.57;2.97;;;16.00;78.00;;;;;;5062760;28;20180;-73
2022/07/05 08:14:45;;;;;;;11.77;2.67;;;16.00;78.70;;;;;;5058601;28;20261;-78
2022/07/05 08:17:13;;;;;;;11.37;3.17;;;15.90;78.90;;;;;;5068848;28;20192;-74
2022/07/05 08:22:26;;;;;;;11.47;3.13;;;15.70;82.30;;;;;;5063732;28;20668;-73
2022/07/05 08:24:53;;;;;;;13.53;2.87;;;15.50;84.20;;;;;;5065791;28;20218;-73
2022/07/05 08:27:20;;;;;;;18.30;2.90;;;15.30;84.80;;;;;;5057993;28;20230;-73
2022/07/05 08:29:49;;;;;;;16.50;3.67;;;15.20;85.30;;;;;;5053088;28;20539;-73
2022/07/05 08:32:17;;;;;;;17.97;3.90;;;15.20;85.60;;;;;;5062572;28;20644;-72
2022/07/05 08:34:44;;;;;;;22.57;3.83;;;15.20;85.60;;;;;;5061583;28;20192;-74
2022/07/05 08:37:12;;;;;;;12.93;2.83;;;15.30;85.50;;;;;;5052823;28;20241;-73
2022/07/05 08:39:39;;;;;;;20.67;3.63;;;15.30;85.30;;;;;;5069820;28;20180;-74
2022/07/05 08:42:10;;;;;;;17.23;3.53;;;15.30;84.80;;;;;;5059981;28;20191;-74
2022/07/05 08:44:40;;;;;;;14.63;3.03;;;15.40;83.80;;;;;;5053608;28;20204;-75
2022/07/05 08:47:11;;;;;;;14.00;3.77;;;15.50;83.30;;;;;;5071464;28;20523;-75
2022/07/05 08:49:42;;;;;;;14.93;3.40;;;15.50;83.60;;;;;;5057931;28;20186;-74
2022/07/05 08:52:14;;;;;;;11.40;2.50;;;15.50;83.70;;;;;;5053093;28;20184;-77
2022/07/05 08:54:41;;;;;;;16.80;3.43;;;15.50;83.80;;;;;;5055266;28;20567;-75
2022/07/05 08:57:09;;;;;;;16.57;3.17;;;15.60;83.80;;;;;;5052207;28;20183;-74
2022/07/05 08:59:36;;;;;;;20.40;3.87;;;15.60;83.50;;;;;;5052436;28;20270;-73
2022/07/05 09:02:04;;;;;;;16.80;3.13;;;15.60;83.40;;;;;;5052027;28;20237;-77
2022/07/05 09:04:37;;;;;;;14.03;3.00;;;15.70;82.90;;;;;;5052115;28;20246;-79
2022/07/05 09:07:07;;;;;;;12.47;2.93;;;15.70;82.40;;;;;;5052239;28;20504;-76
2022/07/05 09:09:42;;;;;;;11.37;2.80;;;15.60;81.70;;;;;;5052411;28;20206;-76
2022/07/05 09:12:13;;;;;;;13.53;2.70;;;15.60;81.40;;;;;;5051745;28;20184;-76
2022/07/05 09:14:40;;;;;;;11.67;3.07;;;15.60;81.30;;;;;;5052522;28;20623;-77
2022/07/05 09:17:08;;;;;;;17.03;3.50;;;15.70;81.10;;;;;;5052956;28;20176;-74
2022/07/05 09:19:36;;;;;;;13.93;2.20;;;15.70;81.10;;;;;;5052083;28;20176;-78
2022/07/05 09:22:05;;;;;;;14.53;2.63;;;15.70;81.40;;;;;;5052225;28;20650;-77
2022/07/05 09:24:42;;;;;;;11.37;3.00;;;15.70;80.40;;;;;;5052657;28;20215;-72
2022/07/05 09:27:09;;;;;;;16.67;2.67;;;15.80;79.60;;;;;;5051959;28;20311;-76
2022/07/05 09:29:36;;;;;;;16.10;4.33;;;15.80;79.60;;;;;;5054246;28;20285;-78
2022/07/05 09:32:04;;;;;;;12.80;3.60;;;15.80;79.80;;;;;;5051846;28;20172;-82
2022/07/05 09:34:34;;;;;;;17.30;3.50;;;15.80;79.40;;;;;;5051689;28;20646;-75
2022/07/05 09:37:03;;;;;;;15.37;3.03;;;15.90;79.60;;;;;;5055409;28;20202;-76
2022/07/05 09:39:30;;;;;;;13.63;2.90;;;15.90;78.70;;;;;;5065967;28;20179;-76
2022/07/05 09:42:23;;;;;;;11.53;2.30;;;15.90;78.60;;;;;;5055785;28;20594;-77
2022/07/05 09:44:59;;;;;;;14.27;2.67;;;15.90;78.70;;;;;;5058583;28;21296;-77
2022/07/05 09:47:29;;;;;;;15.30;3.23;;;15.90;78.60;;;;;;5065260;28;20183;-74
2022/07/05 09:50:09;;;;;;;13.30;3.33;;;15.90;79.00;;;;;;5055395;28;20184;-78
2022/07/05 09:52:39;;;;;;;12.47;3.50;;;15.90;78.80;;;;;;5056313;28;20180;-77
2022/07/05 09:55:07;;;;;;;9.30;2.83;;;15.90;78.50;;;;;;5055249;28;20176;-75
2022/07/05 09:57:37;;;;;;;11.33;2.63;;;15.90;78.70;;;;;;5055495;28;20180;-74
2022/07/05 10:00:07;;;;;;;16.50;3.27;;;15.90;78.40;;;;;;5065932;28;20230;-77
2022/07/05 10:02:48;;;;;;;11.63;2.30;;;15.90;78.00;;;;;;5072276;28;20581;-78
2022/07/05 10:05:20;;;;;;;16.83;3.00;;;16.00;78.50;;;;;;5078741;28;20245;-76
2022/07/05 10:07:55;;;;;;;20.87;2.80;;;16.00;78.80;;;;;;5055774;28;20194;-75
2022/07/05 10:10:26;;;;;;;16.93;3.23;;;15.90;79.00;;;;;;5058153;28;20230;-76
2022/07/05 10:12:56;;;;;;;16.50;2.67;;;16.00;79.10;;;;;;5063272;28;20261;-75
2022/07/05 10:15:27;;;;;;;12.83;3.03;;;15.90;79.10;;;;;;5068427;28;20212;-75
2022/07/05 10:17:55;;;;;;;11.87;3.27;;;15.90;78.90;;;;;;5067740;28;20664;-76
2022/07/05 10:20:40;;;;;;;18.20;3.30;;;15.90;79.20;;;;;;5064063;28;20187;-74
2022/07/05 10:23:13;;;;;;;13.70;3.40;;;15.90;78.90;;;;;;5078610;28;20213;-73
2022/07/05 10:25:44;;;;;;;18.53;3.47;;;15.90;78.60;;;;;;5053784;28;20182;-74
2022/07/05 10:28:12;;;;;;;14.10;2.70;;;15.90;78.90;;;;;;5063434;28;20230;-74
2022/07/05 10:30:39;;;;;;;11.03;3.10;;;15.90;79.30;;;;;;5055056;28;20256;-75
2022/07/05 10:33:09;;;;;;;17.37;3.57;;;15.80;79.40;;;;;;5080441;28;20194;-78
2022/07/05 10:35:37;;;;;;;12.37;3.07;;;15.90;79.60;;;;;;5057405;28;20190;-74
2022/07/05 10:38:08;;;;;;;17.47;3.13;;;15.90;79.70;;;;;;5065022;28;20218;-77
2022/07/05 10:40:36;;;;;;;18.47;3.17;;;15.80;79.70;;;;;;5054629;28;20176;-73
2022/07/05 10:43:06;;;;;;;11.63;2.57;;;15.90;79.10;;;;;;5074874;28;20187;-73
2022/07/05 10:45:39;;;;;;;13.77;3.37;;;15.90;78.90;;;;;;5071566;28;20251;-72
2022/07/05 10:48:15;;;;;;;12.90;2.53;;;16.00;79.10;;;;;;5083882;28;20194;-72
2022/07/05 10:51:05;;;;;;;17.33;3.03;;;16.00;79.70;;;;;;5054676;28;20184;-72
2022/07/05 10:53:38;;;;;;;16.80;3.13;;;15.90;80.00;;;;;;5054214;28;20180;-75
2022/07/05 10:56:06;;;;;;;14.37;2.70;;;15.90;80.00;;;;;;5055943;28;20192;-74
2022/07/05 10:58:46;;;;;;;18.07;2.90;;;15.90;80.50;;;;;;5079767;28;20180;-74
2022/07/05 11:01:19;;;;;;;17.40;3.30;;;15.90;80.50;;;;;;5054524;28;20623;-74
2022/07/05 11:04:02;;;;;;;23.80;3.73;;;15.80;80.80;;;;;;5075567;28;20206;-75
2022/07/05 11:06:42;;;;;;;13.43;3.50;;;15.80;81.40;;;;;;5074909;28;20276;-76
2022/07/05 11:09:13;;;;;;;22.47;3.83;;;15.80;81.90;;;;;;5065635;28;20553;-75
2022/07/05 11:11:51;;;;;;;19.53;5.07;;;15.70;82.00;;;;;;5060474;28;20265;-73
2022/07/05 11:14:27;;;;;;;11.97;2.73;;;15.70;81.90;;;;;;5054054;28;20186;-74
2022/07/05 11:17:15;;;;;;;18.33;3.20;;;15.70;81.00;;;;;;5065707;28;20644;-75
2022/07/05 11:20:03;;;;;;;22.10;6.90;;;15.70;81.50;;;;;;5068065;28;20668;-75
2022/07/05 11:22:31;;;;;;;17.80;4.87;;;15.70;81.20;;;;;;5067034;28;20274;-75
2022/07/05 11:24:59;;;;;;;17.40;3.47;;;15.70;81.10;;;;;;5064055;28;20241;-73
2022/07/05 11:27:27;;;;;;;11.40;4.00;;;15.80;80.30;;;;;;5073426;28;20223;-74
2022/07/05 11:29:56;;;;;;;14.50;2.87;;;15.80;79.70;;;;;;5078319;28;20175;-73
2022/07/05 11:32:30;;;;;;;14.37;2.37;;;15.80;79.60;;;;;;5053501;28;20535;-73
2022/07/05 11:35:19;;;;;;;19.13;3.13;;;15.80;79.00;;;;;;5058529;28;20237;-73
2022/07/05 11:38:07;;;;;;;16.00;3.03;;;15.90;78.60;;;;;;5070095;28;20190;-74
2022/07/05 11:40:37;;;;;;;18.00;3.97;;;15.90;78.80;;;;;;5053250;28;20179;-73
2022/07/05 11:43:07;;;;;;;13.57;3.23;;;15.80;78.50;;;;;;5066742;28;20270;-72
2022/07/05 11:45:34;;;;;;;20.83;3.33;;;15.90;78.10;;;;;;5065098;28;20553;-73
2022/07/05 11:48:03;;;;;;;12.90;2.97;;;15.90;77.80;;;;;;5067298;28;20259;-73
2022/07/05 11:50:35;;;;;;;12.97;2.73;;;15.90;77.80;;;;;;5077947;28;20185;-74
2022/07/05 11:53:03;;;;;;;14.97;3.20;;;16.00;77.70;;;;;;5070695;28;20188;-73
2022/07/05 11:55:31;;;;;;;17.90;3.83;;;15.90;78.00;;;;;;5072435;28;20257;-74
2022/07/05 11:57:59;;;;;;;16.83;3.03;;;15.80;80.10;;;;;;5062946;28;20266;-73
2022/07/05 12:00:30;;;;;;;18.67;2.90;;;15.70;80.80;;;;;;5057823;28;20317;-74
2022/07/05 12:02:57;;;;;;;19.87;2.97;;;15.60;81.40;;;;;;5057202;28;20221;-74
2022/07/05 12:05:31;;;;;;;15.00;8.10;;;15.50;81.60;;;;;;5053265;28;20184;-73
2022/07/05 12:07:59;;;;;;;19.40;3.37;;;15.50;81.40;;;;;;5052893;28;20691;-73
2022/07/05 12:13:12;;;;;;;12.30;2.50;;;15.50;80.60;;;;;;5053355;28;20656;-72
2022/07/05 12:15:40;;;;;;;15.00;3.20;;;15.50;80.80;;;;;;5054127;28;20259;-74
2022/07/05 12:18:09;;;;;;;12.93;3.10;;;15.50;80.90;;;;;;5053050;28;20187;-76
2022/07/05 12:20:39;;;;;;;15.10;2.80;;;15.40;81.10;;;;;;5052587;28;20200;-74
2022/07/05 12:23:07;;;;;;;19.47;6.63;;;15.40;80.70;;;;;;5055514;28;20187;-74
2022/07/05 12:25:36;;;;;;;16.90;3.23;;;15.40;80.30;;;;;;5052400;28;20187;-74
2022/07/05 12:28:06;;;;;;;17.03;2.87;;;15.50;80.50;;;;;;5052850;28;20243;-74
2022/07/05 12:30:34;;;;;;;16.83;2.60;;;15.50;79.90;;;;;;5052815;28;20259;-73
2022/07/05 12:33:12;;;;;;;19.40;2.80;;;15.40;80.70;;;;;;5052458;28;20172;-75
2022/07/05 12:35:47;;;;;;;9.17;2.43;;;15.30;81.30;;;;;;5056019;28;20258;-75
2022/07/05 12:38:21;;;;;;;21.20;2.90;;;15.30;81.10;;;;;;5061711;28;20179;-76
2022/07/05 12:40:58;;;;;;;13.47;2.60;;;15.30;81.30;;;;;;5052208;28;20635;-75
2022/07/05 12:43:25;;;;;;;11.17;2.43;;;15.00;82.20;;;;;;5053884;28;20191;-73
2022/07/05 12:46:04;;;;;;;15.37;2.80;;;14.90;81.90;;;;;;5064125;28;20183;-75
2022/07/05 12:48:36;;;;;;;12.83;2.80;;;14.90;81.40;;;;;;5053098;28;20171;-74
2022/07/05 12:51:05;;;;;;;10.53;1.90;;;14.90;81.60;;;;;;5052735;28;20183;-75
2022/07/05 12:59:10;;;;;;;6.60;1.67;;;14.80;84.40;;;;;;5052947;28;20187;-78
2022/07/05 13:01:43;;;;;;;12.50;2.93;;;14.60;85.40;;;;;;5052501;28;20275;-75